createdAt,value
2022-08-18T00:02:14.517Z,8.63
2022-08-18T00:04:48.531Z,8.63
2022-08-18T00:07:42.244Z,8.88
2022-08-18T00:10:18.593Z,8.23
2022-08-18T00:12:45.602Z,7.90
2022-08-18T00:15:15.155Z,7.63
2022-08-18T00:17:42.445Z,7.50
2022-08-18T00:20:16.058Z,8.52
2022-08-18T00:22:42.905Z,7.72
2022-08-18T00:25:14.019Z,7.20
2022-08-18T00:27:41.523Z,7.45
2022-08-18T00:30:12.170Z,7.15
2022-08-18T00:32:42.706Z,6.65
2022-08-18T00:35:13.773Z,6.93
2022-08-18T00:37:41.342Z,6.30
2022-08-18T00:40:12.263Z,6.63
2022-08-18T00:42:46.167Z,5.68
2022-08-18T00:45:17.825Z,5.93
2022-08-18T00:47:45.388Z,6.65
2022-08-18T00:50:16.278Z,5.60
2022-08-18T00:52:52.584Z,5.70
2022-08-18T00:55:21.621Z,5.82
2022-08-18T00:57:51.522Z,5.90
2022-08-18T01:00:18.823Z,6.10
2022-08-18T01:02:51.444Z,5.30
2022-08-18T01:05:24.346Z,5.38
2022-08-18T01:07:51.459Z,5.63
2022-08-18T01:10:22.470Z,4.80
2022-08-18T01:12:55.701Z,5.10
2022-08-18T01:15:28.731Z,5.05
2022-08-18T01:18:17.473Z,5.22
2022-08-18T01:21:24.742Z,4.82
2022-08-18T01:23:53.706Z,4.70
2022-08-18T01:26:22.767Z,4.68
2022-08-18T01:28:49.736Z,4.80
2022-08-18T01:31:55.418Z,5.00
2022-08-18T01:34:24.841Z,4.72
2022-08-18T01:36:53.056Z,5.03
2022-08-18T01:41:17.334Z,4.38
2022-08-18T01:42:07.456Z,5.13
2022-08-18T01:44:34.487Z,4.82
2022-08-18T01:47:01.170Z,4.72
2022-08-18T01:49:28.912Z,5.22
2022-08-18T01:51:55.833Z,4.95
2022-08-18T01:54:23.017Z,4.85
2022-08-18T01:56:49.736Z,4.95
2022-08-18T01:59:16.496Z,4.90
2022-08-18T02:01:50.380Z,5.18
2022-08-18T02:04:37.619Z,4.63
2022-08-18T02:07:07.864Z,4.70
2022-08-18T02:09:37.509Z,4.32
2022-08-18T02:12:05.993Z,4.10
2022-08-18T02:14:33.676Z,4.40
2022-08-18T02:17:02.792Z,4.07
2022-08-18T02:19:47.331Z,4.10
2022-08-18T02:22:18.525Z,4.15
2022-08-18T02:24:45.381Z,3.97
2022-08-18T02:27:14.150Z,4.00
2022-08-18T02:29:41.102Z,4.10
2022-08-18T02:32:08.713Z,3.88
2022-08-18T02:34:36.479Z,3.63
2022-08-18T02:37:03.393Z,4.40
2022-08-18T02:39:30.555Z,4.10
2022-08-18T02:41:57.325Z,4.50
2022-08-18T02:44:24.063Z,4.30
2022-08-18T02:46:54.841Z,4.63
2022-08-18T02:49:22.055Z,3.80
2022-08-18T02:51:51.105Z,4.28
2022-08-18T02:54:20.570Z,4.57
2022-08-18T02:56:47.673Z,4.18
2022-08-18T02:59:19.996Z,4.28
2022-08-18T03:01:50.896Z,4.57
2022-08-18T03:04:26.677Z,4.57
2022-08-18T03:06:56.537Z,4.37
2022-08-18T03:09:23.260Z,4.80
2022-08-18T03:11:49.971Z,4.22
2022-08-18T03:14:16.934Z,4.73
2022-08-18T03:16:53.841Z,4.17
2022-08-18T03:19:26.151Z,3.80
2022-08-18T03:21:54.978Z,4.57
2022-08-18T03:24:24.008Z,3.90
2022-08-18T03:26:52.306Z,4.37
2022-08-18T03:29:19.980Z,4.70
2022-08-18T03:31:48.910Z,4.93
2022-08-18T03:34:19.774Z,4.30
2022-08-18T03:36:47.726Z,4.13
2022-08-18T03:39:14.554Z,4.57
2022-08-18T03:41:59.614Z,4.55
2022-08-18T03:44:33.823Z,4.50
2022-08-18T03:47:03.047Z,4.80
2022-08-18T03:49:31.203Z,4.23
2022-08-18T03:52:00.876Z,4.50
2022-08-18T03:54:32.338Z,4.33
2022-08-18T03:57:00.358Z,4.47
2022-08-18T03:59:28.736Z,4.67
2022-08-18T04:01:55.751Z,4.23
2022-08-18T04:04:26.538Z,4.75
2022-08-18T04:07:04.657Z,4.50
2022-08-18T04:09:33.287Z,4.50
2022-08-18T04:12:15.253Z,4.38
2022-08-18T04:14:43.847Z,4.57
2022-08-18T04:17:10.669Z,4.50
2022-08-18T04:19:38.024Z,4.45
2022-08-18T04:22:05.807Z,4.85
2022-08-18T04:24:34.632Z,4.33
2022-08-18T04:27:04.927Z,4.57
2022-08-18T04:29:32.101Z,4.88
2022-08-18T04:32:04.732Z,4.45
2022-08-18T04:34:35.833Z,4.35
2022-08-18T04:37:03.398Z,4.70
2022-08-18T04:39:30.993Z,4.68
2022-08-18T04:41:59.355Z,4.60
2022-08-18T04:44:26.106Z,4.88
2022-08-18T04:46:54.226Z,5.38
2022-08-18T04:49:25.571Z,5.50
2022-08-18T04:52:38.972Z,5.00
2022-08-18T04:54:59.217Z,5.03
2022-08-18T04:57:26.268Z,5.40
2022-08-18T04:59:53.446Z,5.90
2022-08-18T05:02:21.618Z,6.57
2022-08-18T05:04:48.561Z,5.80
2022-08-18T05:07:19.002Z,5.82
2022-08-18T05:09:46.583Z,4.50
2022-08-18T05:12:15.465Z,5.13
2022-08-18T05:14:48.299Z,5.00
2022-08-18T05:17:16.166Z,5.30
2022-08-18T05:19:44.589Z,5.43
2022-08-18T05:22:17.834Z,5.75
2022-08-18T05:24:46.266Z,6.40
2022-08-18T05:27:13.623Z,5.38
2022-08-18T05:29:41.538Z,5.40
2022-08-18T05:32:37.340Z,4.97
2022-08-18T05:35:07.344Z,5.18
2022-08-18T05:38:16.896Z,5.00
2022-08-18T05:40:46.194Z,5.70
2022-08-18T05:43:15.480Z,4.90
2022-08-18T05:45:42.464Z,5.00
2022-08-18T05:48:09.120Z,5.53
2022-08-18T05:50:37.911Z,5.30
2022-08-18T05:53:13.770Z,5.43
2022-08-18T05:56:15.799Z,5.70
2022-08-18T05:58:49.475Z,5.38
2022-08-18T06:01:22.680Z,6.00
2022-08-18T06:03:59.731Z,5.72
2022-08-18T06:06:29.781Z,6.40
2022-08-18T06:09:02.297Z,7.07
2022-08-18T06:11:28.962Z,6.80
2022-08-18T06:13:59.466Z,8.02
2022-08-18T06:16:33.026Z,7.38
2022-08-18T06:19:39.406Z,7.28
2022-08-18T06:22:24.853Z,7.68
2022-08-18T06:25:20.022Z,7.57
2022-08-18T06:28:00.336Z,7.07
2022-08-18T06:30:40.540Z,6.55
2022-08-18T06:33:30.271Z,6.00
2022-08-18T06:36:14.359Z,5.40
2022-08-18T06:38:57.699Z,6.03
2022-08-18T06:41:43.850Z,5.45
2022-08-18T06:44:19.767Z,6.13
2022-08-18T06:47:04.340Z,5.57
2022-08-18T06:49:54.868Z,5.80
2022-08-18T06:52:31.505Z,5.70
2022-08-18T06:55:02.226Z,5.38
2022-08-18T06:57:38.218Z,5.05
2022-08-18T07:00:17.104Z,5.40
2022-08-18T07:02:51.342Z,5.43
2022-08-18T07:05:29.177Z,5.07
2022-08-18T07:08:11.635Z,4.85
2022-08-18T07:10:47.830Z,5.38
2022-08-18T07:13:19.278Z,5.78
2022-08-18T07:15:48.196Z,5.50
2022-08-18T07:18:22.673Z,4.95
2022-08-18T07:20:56.422Z,5.85
2022-08-18T07:23:28.264Z,6.03
2022-08-18T07:26:03.976Z,6.68
2022-08-18T07:28:32.754Z,7.13
2022-08-18T07:31:17.269Z,6.47
2022-08-18T07:33:51.698Z,7.85
2022-08-18T07:36:23.080Z,7.53
2022-08-18T07:38:54.733Z,7.95
2022-08-18T07:41:38.578Z,7.60
2022-08-18T07:44:18.625Z,7.97
2022-08-18T07:47:00.618Z,8.40
2022-08-18T07:49:35.325Z,7.55
2022-08-18T07:52:36.263Z,7.88
2022-08-18T07:55:27.055Z,7.90
2022-08-18T07:58:32.633Z,8.23
2022-08-18T08:01:17.258Z,8.07
2022-08-18T08:03:56.703Z,9.20
2022-08-18T08:06:39.146Z,8.25
2022-08-18T08:09:26.165Z,8.40
2022-08-18T08:12:07.339Z,8.48
2022-08-18T08:14:50.055Z,8.50
2022-08-18T08:17:25.242Z,7.82
2022-08-18T08:20:08.608Z,8.25
2022-08-18T08:23:15.119Z,7.53
2022-08-18T08:26:11.606Z,7.65
2022-08-18T08:28:52.484Z,7.50
2022-08-18T08:31:36.752Z,8.20
2022-08-18T08:34:34.614Z,7.88
2022-08-18T08:37:05.803Z,7.93
2022-08-18T08:40:06.060Z,8.77
2022-08-18T08:42:58.732Z,8.13
2022-08-18T08:45:33.266Z,8.18
2022-08-18T08:48:26.578Z,8.85
2022-08-18T08:51:12.078Z,9.02
2022-08-18T08:53:47.216Z,8.63
2022-08-18T08:56:18.032Z,9.10
2022-08-18T08:58:59.360Z,8.27
2022-08-18T09:01:48.147Z,8.23
2022-08-18T09:04:17.863Z,8.43
2022-08-18T09:06:45.313Z,9.00
2022-08-18T09:09:49.343Z,9.10
2022-08-18T09:12:57.817Z,8.20
2022-08-18T09:15:42.763Z,9.00
2022-08-18T09:18:39.286Z,9.27
2022-08-18T09:21:36.533Z,9.43
2022-08-18T09:24:17.280Z,9.40
2022-08-18T09:27:15.528Z,8.68
2022-08-18T09:29:54.916Z,9.05
2022-08-18T09:35:23.550Z,10.00
2022-08-18T09:38:26.049Z,10.27
2022-08-18T09:41:17.607Z,9.13
2022-08-18T09:44:09.915Z,8.63
2022-08-18T09:46:46.498Z,8.52
2022-08-18T09:49:22.291Z,8.18
2022-08-18T09:51:53.571Z,8.18
2022-08-18T09:54:29.576Z,8.18
2022-08-18T09:57:19.511Z,8.30
2022-08-18T10:00:04.292Z,7.53
2022-08-18T10:02:32.030Z,8.35
2022-08-18T10:05:19.898Z,8.63
2022-08-18T10:07:54.264Z,9.00
2022-08-18T10:11:00.502Z,9.18
2022-08-18T10:13:33.306Z,9.32
2022-08-18T10:16:28.185Z,9.95
2022-08-18T10:19:23.148Z,10.00
2022-08-18T10:21:58.716Z,9.95
2022-08-18T10:24:57.270Z,10.20
2022-08-18T10:27:44.481Z,10.35
2022-08-18T10:30:34.135Z,11.23
2022-08-18T10:33:17.609Z,9.90
2022-08-18T10:35:59.929Z,10.80
2022-08-18T10:38:49.670Z,10.88
2022-08-18T10:41:24.478Z,10.32
2022-08-18T10:43:55.756Z,11.65
2022-08-18T10:46:32.029Z,11.38
2022-08-18T10:49:25.221Z,10.80
2022-08-18T10:52:10.630Z,9.45
2022-08-18T10:58:12.789Z,10.55
2022-08-18T11:01:01.049Z,10.10
2022-08-18T11:04:14.514Z,11.35
2022-08-18T11:06:57.355Z,12.57
2022-08-18T11:09:30.571Z,11.75
2022-08-18T11:12:01.414Z,10.90
2022-08-18T11:14:41.296Z,11.23
2022-08-18T11:17:29.991Z,10.30
2022-08-18T11:19:56.936Z,11.40
2022-08-18T11:22:32.415Z,10.07
2022-08-18T11:25:01.553Z,10.68
2022-08-18T11:27:35.603Z,10.52
2022-08-18T11:30:06.129Z,10.80
2022-08-18T11:32:39.360Z,10.13
2022-08-18T11:35:31.902Z,10.27
2022-08-18T11:38:01.855Z,11.48
2022-08-18T11:46:38.834Z,10.48
2022-08-18T11:49:33.419Z,11.15
2022-08-18T11:52:15.260Z,9.85
2022-08-18T11:54:53.057Z,10.00
2022-08-18T11:57:46.975Z,10.05
2022-08-18T12:00:43.182Z,9.75
2022-08-18T12:03:19.659Z,10.35
2022-08-18T12:05:56.723Z,9.70
2022-08-18T12:08:56.999Z,10.65
2022-08-18T12:11:32.759Z,13.77
2022-08-18T12:16:51.320Z,12.45
2022-08-18T12:19:22.432Z,13.23
2022-08-18T12:21:56.714Z,15.35
2022-08-18T12:24:36.644Z,16.13
2022-08-18T12:27:21.255Z,15.95
2022-08-18T12:29:50.448Z,16.42
2022-08-18T12:32:41.809Z,18.58
2022-08-18T12:35:09.509Z,18.33
2022-08-18T12:40:26.562Z,16.88
2022-08-18T12:42:55.971Z,20.50
2022-08-18T12:45:24.616Z,20.75
2022-08-18T12:47:51.580Z,21.30
2022-08-18T12:50:19.995Z,22.15
2022-08-18T12:52:57.890Z,21.80
2022-08-18T12:55:43.715Z,21.45
2022-08-18T12:58:12.650Z,21.77
2022-08-18T13:00:41.190Z,24.13
2022-08-18T13:03:08.720Z,20.75
2022-08-18T13:05:37.447Z,20.60
2022-08-18T13:08:12.464Z,19.80
2022-08-18T13:10:46.168Z,21.73
2022-08-18T13:13:15.741Z,22.33
2022-08-18T13:15:44.364Z,22.08
2022-08-18T13:18:27.184Z,18.73
2022-08-18T13:20:55.522Z,20.30
2022-08-18T13:23:25.080Z,23.48
2022-08-18T13:25:52.315Z,22.23
2022-08-18T13:28:30.280Z,20.52
2022-08-18T13:30:58.363Z,21.17
2022-08-18T13:33:55.859Z,18.80
2022-08-18T13:36:12.633Z,19.33
2022-08-18T13:38:43.303Z,17.90
2022-08-18T13:41:15.814Z,19.42
2022-08-18T13:43:47.802Z,18.73
2022-08-18T13:46:18.554Z,18.55
2022-08-18T13:48:46.723Z,17.98
2022-08-18T13:51:20.791Z,18.33
2022-08-18T13:53:59.078Z,16.90
2022-08-18T13:56:36.229Z,17.08
2022-08-18T13:59:06.634Z,16.60
2022-08-18T14:01:51.405Z,15.65
2022-08-18T14:04:20.839Z,17.13
2022-08-18T14:06:56.485Z,16.48
2022-08-18T14:09:27.862Z,17.08
2022-08-18T14:12:23.247Z,15.80
2022-08-18T14:14:55.705Z,15.60
2022-08-18T14:17:26.432Z,15.75
2022-08-18T14:20:15.522Z,16.65
2022-08-18T14:23:21.475Z,15.23
2022-08-18T14:26:09.271Z,15.20
2022-08-18T14:28:38.447Z,14.25
2022-08-18T14:31:08.683Z,14.93
2022-08-18T14:33:51.787Z,15.10
2022-08-18T14:36:29.502Z,15.38
2022-08-18T14:38:57.892Z,16.02
2022-08-18T14:41:25.560Z,13.90
2022-08-18T14:44:12.924Z,15.13
2022-08-18T14:46:41.015Z,16.85
2022-08-18T14:49:08.218Z,16.98
2022-08-18T14:51:36.666Z,17.02
2022-08-18T14:54:03.854Z,13.98
2022-08-18T14:56:36.486Z,14.68
2022-08-18T14:59:07.749Z,15.65
2022-08-18T15:01:42.664Z,14.98
2022-08-18T15:04:19.055Z,15.25
2022-08-18T15:06:55.936Z,15.23
2022-08-18T15:09:26.895Z,16.98
2022-08-18T15:11:56.568Z,16.90
2022-08-18T15:14:26.660Z,16.13
2022-08-18T15:17:11.914Z,17.02
2022-08-18T15:19:59.888Z,15.00
2022-08-18T15:22:47.793Z,15.98
2022-08-18T15:25:33.895Z,16.23
2022-08-18T15:28:00.921Z,14.55
2022-08-18T15:30:28.703Z,14.70
2022-08-18T15:32:55.794Z,15.98
2022-08-18T15:35:22.570Z,15.93
2022-08-18T15:37:51.155Z,15.75
2022-08-18T15:40:30.793Z,17.85
2022-08-18T15:43:09.554Z,15.95
2022-08-18T15:45:43.348Z,15.02
2022-08-18T15:48:25.333Z,17.23
2022-08-18T15:50:53.636Z,16.25
2022-08-18T15:53:25.474Z,16.92
2022-08-18T15:55:57.221Z,16.05
2022-08-18T15:58:26.850Z,19.17
2022-08-18T16:00:58.786Z,17.95
2022-08-18T16:03:26.035Z,18.38
2022-08-18T16:05:54.566Z,18.40
2022-08-18T16:08:23.853Z,19.95
2022-08-18T16:10:51.758Z,18.83
2022-08-18T16:13:19.315Z,18.58
2022-08-18T16:15:48.259Z,18.60
2022-08-18T16:18:17.384Z,22.08
2022-08-18T16:20:44.539Z,21.95
2022-08-18T16:23:12.461Z,25.63
2022-08-18T16:25:40.113Z,25.67
2022-08-18T16:28:07.613Z,25.23
2022-08-18T16:30:36.300Z,26.67
2022-08-18T16:33:06.435Z,26.33
2022-08-18T16:35:35.513Z,25.95
2022-08-18T16:38:05.184Z,25.00
2022-08-18T16:40:32.103Z,25.35
2022-08-18T16:43:00.907Z,23.95
2022-08-18T16:45:28.420Z,23.10
2022-08-18T16:47:55.579Z,23.25
2022-08-18T16:50:23.543Z,21.30
2022-08-18T16:52:50.254Z,20.92
2022-08-18T16:55:17.055Z,20.73
2022-08-18T16:58:04.796Z,19.63
2022-08-18T17:00:54.436Z,21.85
2022-08-18T17:03:41.940Z,20.90
2022-08-18T17:06:11.679Z,20.20
2022-08-18T17:08:39.453Z,20.13
2022-08-18T17:11:13.519Z,20.08
2022-08-18T17:13:41.835Z,19.88
2022-08-18T17:16:10.103Z,18.45
2022-08-18T17:18:37.413Z,17.80
2022-08-18T17:21:06.724Z,17.88
2022-08-18T17:23:34.497Z,17.05
2022-08-18T17:26:09.043Z,16.95
2022-08-18T17:28:50.352Z,17.30
2022-08-18T17:31:24.648Z,17.98
2022-08-18T17:33:57.280Z,17.23
2022-08-18T17:36:35.541Z,16.13
2022-08-18T17:39:06.428Z,15.00
2022-08-18T17:41:54.760Z,14.90
2022-08-18T17:44:21.625Z,13.85
2022-08-18T17:47:02.325Z,13.68
2022-08-18T17:49:54.391Z,13.93
2022-08-18T17:52:45.878Z,13.15
2022-08-18T17:55:39.236Z,12.73
2022-08-18T17:58:25.365Z,12.88
2022-08-18T18:00:52.649Z,12.48
2022-08-18T18:03:19.415Z,12.02
2022-08-18T18:06:02.069Z,12.75
2022-08-18T18:09:00.226Z,12.60
2022-08-18T18:11:47.687Z,12.25
2022-08-18T18:14:26.608Z,13.10
2022-08-18T18:17:06.438Z,12.15
2022-08-18T18:19:46.565Z,12.57
2022-08-18T18:22:28.394Z,12.38
2022-08-18T18:25:06.585Z,13.13
2022-08-18T18:27:36.970Z,13.30
2022-08-18T18:30:09.612Z,12.32
2022-08-18T18:32:59.069Z,12.43
2022-08-18T18:35:53.315Z,11.70
2022-08-18T18:38:38.055Z,12.02
2022-08-18T18:41:20.273Z,12.40
2022-08-18T18:43:51.502Z,12.05
2022-08-18T18:46:35.257Z,11.60
2022-08-18T18:49:27.435Z,11.95
2022-08-18T18:52:33.666Z,12.38
2022-08-18T18:55:15.242Z,11.60
2022-08-18T18:57:51.121Z,11.88
2022-08-18T19:00:30.328Z,11.52
2022-08-18T19:03:03.682Z,12.90
2022-08-18T19:05:45.776Z,12.90
2022-08-18T19:08:28.433Z,11.70
2022-08-18T19:11:19.410Z,12.25
2022-08-18T19:13:56.038Z,11.20
2022-08-18T19:16:36.142Z,11.80
2022-08-18T19:19:36.750Z,11.52
2022-08-18T19:22:19.431Z,12.60
2022-08-18T19:24:54.341Z,12.20
2022-08-18T19:27:29.967Z,12.45
2022-08-18T19:30:01.559Z,12.07
2022-08-18T19:32:37.055Z,11.88
2022-08-18T19:35:11.858Z,12.15
2022-08-18T19:38:04.628Z,12.05
2022-08-18T19:40:51.270Z,11.70
2022-08-18T19:43:24.900Z,11.95
2022-08-18T19:46:00.550Z,12.85
2022-08-18T19:48:43.320Z,12.63
2022-08-18T19:51:25.695Z,12.23
2022-08-18T19:54:04.233Z,11.80
2022-08-18T19:57:08.840Z,11.88
2022-08-18T19:59:51.266Z,12.05
2022-08-18T20:02:29.367Z,11.60
2022-08-18T20:05:17.862Z,12.23
2022-08-18T20:07:55.459Z,11.98
2022-08-18T20:10:31.732Z,12.18
2022-08-18T20:13:20.577Z,11.60
2022-08-18T20:16:10.568Z,11.90
2022-08-18T20:18:49.835Z,12.02
2022-08-18T20:21:20.320Z,12.68
2022-08-18T20:23:56.518Z,11.48
2022-08-18T20:26:42.559Z,12.10
2022-08-18T20:29:41.435Z,12.50
2022-08-18T20:32:32.057Z,11.77
2022-08-18T20:35:32.161Z,13.38
2022-08-18T20:38:28.257Z,11.85
2022-08-18T20:40:55.668Z,12.00
2022-08-18T20:43:28.354Z,11.52
2022-08-18T20:46:43.080Z,11.85
2022-08-18T20:49:25.304Z,12.43
2022-08-18T20:55:04.630Z,11.43
2022-08-18T20:57:40.395Z,11.18
2022-08-18T21:00:26.813Z,10.82
2022-08-18T21:02:57.061Z,10.90
2022-08-18T21:05:31.677Z,12.63
2022-08-18T21:08:02.864Z,11.73
2022-08-18T21:10:31.679Z,12.27
2022-08-18T21:13:01.112Z,11.40
2022-08-18T21:15:35.464Z,12.45
2022-08-18T21:18:04.317Z,12.35
2022-08-18T21:20:33.108Z,11.88
2022-08-18T21:23:08.566Z,12.60
2022-08-18T21:25:36.054Z,11.35
2022-08-18T21:28:05.670Z,12.07
2022-08-18T21:30:32.593Z,11.75
2022-08-18T21:32:59.944Z,12.68
2022-08-18T21:35:33.937Z,11.68
2022-08-18T21:38:04.126Z,12.10
2022-08-18T21:40:46.947Z,12.63
2022-08-18T21:43:34.710Z,12.23
2022-08-18T21:46:02.140Z,11.57
2022-08-18T21:48:31.615Z,12.55
2022-08-18T21:51:00.464Z,12.55
2022-08-18T21:53:31.189Z,12.00
2022-08-18T21:55:59.620Z,11.98
2022-08-18T21:58:39.176Z,13.48
2022-08-18T22:01:29.226Z,13.55
2022-08-18T22:04:02.859Z,13.57
2022-08-18T22:06:40.497Z,12.77
2022-08-18T22:09:28.752Z,12.50
2022-08-18T22:12:54.843Z,13.68
2022-08-18T22:15:39.354Z,12.60
2022-08-18T22:18:40.802Z,13.05
2022-08-18T22:21:33.078Z,13.00
2022-08-18T22:24:18.864Z,13.20
2022-08-18T22:26:49.036Z,12.90
2022-08-18T22:29:45.775Z,14.02
2022-08-18T22:32:13.743Z,13.45
2022-08-18T22:34:40.735Z,12.85
2022-08-18T22:37:20.688Z,13.07
2022-08-18T22:39:55.136Z,13.52
2022-08-18T22:42:25.756Z,13.77
2022-08-18T22:44:52.645Z,14.27
2022-08-18T22:47:20.286Z,13.27
2022-08-18T22:49:47.445Z,12.13
2022-08-18T22:52:30.136Z,12.32
2022-08-18T22:54:59.260Z,12.88
2022-08-18T22:57:29.013Z,12.88
2022-08-18T22:59:56.781Z,14.38
2022-08-18T23:02:24.921Z,13.13
2022-08-18T23:04:52.162Z,13.25
2022-08-18T23:07:23.089Z,12.63
2022-08-18T23:09:49.918Z,13.48
2022-08-18T23:12:16.765Z,12.82
2022-08-18T23:14:45.812Z,13.32
2022-08-18T23:17:14.095Z,13.07
2022-08-18T23:19:40.971Z,13.35
2022-08-18T23:22:09.108Z,13.50
2022-08-18T23:24:37.690Z,13.73
2022-08-18T23:27:05.659Z,12.73
2022-08-18T23:29:36.604Z,13.35
2022-08-18T23:32:07.095Z,13.00
2022-08-18T23:34:35.687Z,13.20
2022-08-18T23:37:04.075Z,13.90
2022-08-18T23:39:33.579Z,14.43
2022-08-18T23:42:01.618Z,13.30
2022-08-18T23:44:28.562Z,13.57
2022-08-18T23:46:57.984Z,13.38
2022-08-18T23:49:28.654Z,13.45
2022-08-18T23:51:56.168Z,13.88
2022-08-18T23:54:27.426Z,13.98
2022-08-18T23:56:54.335Z,14.48
2022-08-18T23:59:22.393Z,14.32
